createdAt,value
2023-01-04T00:13:33.555Z,7.35
2023-01-04T00:28:23.637Z,7.26
2023-01-04T00:43:14.101Z,7.28
2023-01-04T00:58:04.529Z,7.17
2023-01-04T01:12:54.531Z,6.99
2023-01-04T01:27:44.535Z,6.82
2023-01-04T01:42:35.105Z,6.70
2023-01-04T01:57:25.568Z,6.61
2023-01-04T02:12:16.645Z,6.64
2023-01-04T02:27:06.484Z,6.57
2023-01-04T02:42:16.112Z,6.57
2023-01-04T02:57:32.856Z,6.66
2023-01-04T03:12:31.584Z,6.67
2023-01-04T03:27:43.517Z,6.81
2023-01-04T03:43:17.137Z,6.84
2023-01-04T03:58:14.994Z,6.92
2023-01-04T04:13:11.472Z,7.03
2023-01-04T04:27:57.854Z,7.03
2023-01-04T04:42:48.893Z,7.03
2023-01-04T04:57:39.852Z,7.10
2023-01-04T05:12:53.032Z,7.26
2023-01-04T05:27:46.527Z,7.48
2023-01-04T05:42:38.182Z,7.84
2023-01-04T05:57:30.040Z,8.11
2023-01-04T06:12:21.322Z,8.34
2023-01-04T06:27:13.325Z,8.54
2023-01-04T06:42:06.674Z,8.70
2023-01-04T06:56:54.921Z,8.83
2023-01-04T07:11:46.578Z,8.92
2023-01-04T07:26:37.376Z,8.99
2023-01-04T07:41:28.008Z,9.10
2023-01-04T07:56:19.119Z,9.16
2023-01-04T08:11:09.517Z,9.19
2023-01-04T08:26:04.303Z,9.29
2023-01-04T08:41:00.200Z,9.51
2023-01-04T08:55:50.261Z,9.68
2023-01-04T09:10:44.313Z,9.82
2023-01-04T09:25:35.428Z,9.96
2023-01-04T09:40:32.048Z,10.05
2023-01-04T09:55:41.333Z,10.22
2023-01-04T10:10:45.474Z,10.45
2023-01-04T10:25:44.720Z,10.58
2023-01-04T10:40:38.657Z,10.66
2023-01-04T10:55:38.168Z,10.74
2023-01-04T11:10:45.452Z,10.82
2023-01-04T11:25:39.978Z,10.76
2023-01-04T11:40:31.341Z,10.83
2023-01-04T11:55:28.111Z,10.83
2023-01-04T12:10:24.250Z,10.87
2023-01-04T12:25:35.472Z,10.99
2023-01-04T12:40:49.116Z,11.12
2023-01-04T12:55:45.657Z,11.25
2023-01-04T13:10:41.033Z,11.30
2023-01-04T13:25:34.377Z,11.36
2023-01-04T13:40:28.575Z,11.37
2023-01-04T13:55:22.103Z,11.39
2023-01-04T14:10:16.188Z,11.42
2023-01-04T14:25:34.739Z,11.44
2023-01-04T14:40:33.499Z,11.47
2023-01-04T14:55:27.083Z,11.47
2023-01-04T15:10:26.788Z,11.48
2023-01-04T15:25:21.362Z,11.52
2023-01-04T15:40:13.171Z,11.51
2023-01-04T15:55:06.381Z,11.42
2023-01-04T16:09:58.845Z,11.39
2023-01-04T16:54:32.011Z,11.32
2023-01-04T17:09:23.006Z,11.11
2023-01-04T17:24:14.307Z,10.90
2023-01-04T17:39:06.123Z,10.78
2023-01-04T18:08:47.562Z,10.43
2023-01-04T18:23:38.521Z,10.32
2023-01-04T18:38:28.878Z,10.30
2023-01-04T18:53:19.527Z,10.28
2023-01-04T19:08:10.270Z,10.37
2023-01-04T19:23:01.642Z,10.52
2023-01-04T19:37:53.320Z,10.70
2023-01-04T19:52:44.562Z,10.89
2023-01-04T20:07:36.164Z,11.17
2023-01-04T20:22:27.822Z,11.30
2023-01-04T20:37:19.181Z,11.52
2023-01-04T20:52:11.001Z,11.54
2023-01-04T21:07:01.911Z,11.58
2023-01-04T21:21:54.295Z,11.68
2023-01-04T21:36:43.694Z,11.74
2023-01-04T21:51:34.969Z,11.79
2023-01-04T22:06:26.340Z,11.79
2023-01-04T22:21:18.533Z,11.75
2023-01-04T22:36:18.997Z,11.84
2023-01-04T22:51:08.184Z,11.82
2023-01-04T23:06:00.970Z,11.60
2023-01-04T23:20:53.435Z,11.42
2023-01-04T23:35:46.399Z,11.45
2023-01-04T23:50:37.081Z,11.31
